Central Point, Oregon
Current Conditions -  °F | °C
As of 11:53 AM on Friday 28 Nov 2014 (Local Time) from KMFR Reporting Station
Broken Clouds Broken Clouds  
Wind Chill: 58°   Ceiling: 7000
Heat Index: 58°   Visibility: 10mi
Dew Point: 41°   Wind: 16mph
Humidity: 53%   Direction: 160°SSE
Pressure: 29.76"   Gusts: 24mph
Location:  42.38°N, 122.91°W
Report Text: KMFR 281953Z 16014G21KT 10SM BKN070 14/05 A2976 RMK AO2 PK WND 15027/1921 WSHFT 1912 RAB14E37 PRESFR SLP074 P0000 T01440050
Loading
Personal Weather Stations






























Interactive Weather Map New forecast layout! Learn more

10-Day Weather Forecast

Advertisements
Track Severe Weather on mobile